createdAt,value
2022-10-01T00:00:56.962Z,3.03
2022-10-01T00:03:24.666Z,2.83
2022-10-01T00:06:11.784Z,2.97
2022-10-01T00:08:39.683Z,2.65
2022-10-01T00:11:15.009Z,3.00
2022-10-01T00:13:43.171Z,2.60
2022-10-01T00:16:15.713Z,2.80
2022-10-01T00:18:43.589Z,2.65
2022-10-01T00:21:12.203Z,2.75
2022-10-01T00:23:39.341Z,2.60
2022-10-01T00:26:15.496Z,3.20
2022-10-01T00:28:42.844Z,3.05
2022-10-01T00:31:09.929Z,2.65
2022-10-01T00:33:36.880Z,2.90
2022-10-01T00:36:07.818Z,2.58
2022-10-01T00:38:34.818Z,2.75
2022-10-01T00:41:01.834Z,2.58
2022-10-01T00:43:31.134Z,2.90
2022-10-01T00:46:03.843Z,3.28
2022-10-01T00:48:31.036Z,2.85
2022-10-01T00:50:57.969Z,2.70
2022-10-01T00:53:25.011Z,4.13
2022-10-01T00:55:56.343Z,2.90
2022-10-01T00:59:19.547Z,3.53
2022-10-01T01:02:23.854Z,3.35
2022-10-01T01:05:47.515Z,3.47
2022-10-01T01:08:55.209Z,3.30
2022-10-01T01:11:40.122Z,4.03
2022-10-01T01:14:29.603Z,3.17
2022-10-01T01:16:59.708Z,3.42
2022-10-01T01:19:55.691Z,3.55
2022-10-01T01:22:23.909Z,3.70
2022-10-01T01:24:52.566Z,3.50
2022-10-01T01:27:38.391Z,3.30
2022-10-01T01:30:09.064Z,4.10
2022-10-01T01:32:46.329Z,3.50
2022-10-01T01:35:20.159Z,3.25
2022-10-01T01:37:53.664Z,3.47
2022-10-01T01:40:21.459Z,3.25
2022-10-01T01:42:48.897Z,3.70
2022-10-01T01:45:19.165Z,3.63
2022-10-01T01:47:46.245Z,3.75
2022-10-01T01:50:13.895Z,3.40
2022-10-01T01:52:41.368Z,3.38
2022-10-01T01:55:09.460Z,3.20
2022-10-01T01:57:43.969Z,3.92
2022-10-01T02:00:12.813Z,3.40
2022-10-01T02:02:41.555Z,2.92
2022-10-01T02:05:17.584Z,3.55
2022-10-01T02:08:07.749Z,3.85
2022-10-01T02:10:43.645Z,3.30
2022-10-01T02:13:22.292Z,3.38
2022-10-01T02:16:07.730Z,3.75
2022-10-01T02:18:55.740Z,3.45
2022-10-01T02:21:35.937Z,3.83
2022-10-01T02:24:06.672Z,3.70
2022-10-01T02:26:33.909Z,3.47
2022-10-01T02:29:06.635Z,3.50
2022-10-01T02:31:33.882Z,3.50
2022-10-01T02:34:01.477Z,4.00
2022-10-01T02:36:29.759Z,3.63
2022-10-01T02:38:56.699Z,3.70
2022-10-01T02:41:27.133Z,3.42
2022-10-01T02:44:08.124Z,3.85
2022-10-01T02:47:00.640Z,4.07
2022-10-01T02:49:30.725Z,3.95
2022-10-01T02:52:22.159Z,3.92
2022-10-01T02:54:54.388Z,3.80
2022-10-01T02:57:24.497Z,3.60
2022-10-01T02:59:51.917Z,4.07
2022-10-01T03:02:19.540Z,4.05
2022-10-01T03:04:48.659Z,4.13
2022-10-01T03:07:16.275Z,3.92
2022-10-01T03:09:43.303Z,4.28
2022-10-01T03:12:10.860Z,4.90
2022-10-01T03:14:39.481Z,4.30
2022-10-01T03:17:07.425Z,4.00
2022-10-01T03:19:34.466Z,3.70
2022-10-01T03:22:01.855Z,4.20
2022-10-01T03:24:28.975Z,4.47
2022-10-01T03:26:57.023Z,4.18
2022-10-01T03:29:25.086Z,4.68
2022-10-01T03:31:52.465Z,4.10
2022-10-01T03:34:19.571Z,4.00
2022-10-01T03:36:47.143Z,4.30
2022-10-01T03:39:14.774Z,4.22
2022-10-01T03:41:41.813Z,4.72
2022-10-01T03:44:08.778Z,3.80
2022-10-01T03:46:35.910Z,3.85
2022-10-01T03:49:03.074Z,4.07
2022-10-01T03:51:30.487Z,4.00
2022-10-01T03:53:57.868Z,3.72
2022-10-01T03:56:25.181Z,3.55
2022-10-01T03:58:52.277Z,3.58
2022-10-01T04:01:19.349Z,3.40
2022-10-01T04:03:46.691Z,3.63
2022-10-01T04:06:13.824Z,3.42
2022-10-01T04:08:40.904Z,3.58
2022-10-01T04:11:08.050Z,3.53
2022-10-01T04:13:35.460Z,4.00
2022-10-01T04:16:03.340Z,3.35
2022-10-01T04:18:31.031Z,3.63
2022-10-01T04:20:58.171Z,3.25
2022-10-01T04:23:25.648Z,3.35
2022-10-01T04:25:52.702Z,4.05
2022-10-01T04:28:19.810Z,3.90
2022-10-01T04:30:47.164Z,3.63
2022-10-01T04:33:15.852Z,4.15
2022-10-01T04:35:43.651Z,3.92
2022-10-01T04:38:15.849Z,3.15
2022-10-01T04:40:43.002Z,4.10
2022-10-01T04:43:10.185Z,3.80
2022-10-01T04:45:37.766Z,3.47
2022-10-01T04:48:05.289Z,3.92
2022-10-01T04:50:32.465Z,3.83
2022-10-01T04:52:59.542Z,3.63
2022-10-01T04:55:26.623Z,3.55
2022-10-01T04:57:53.978Z,4.13
2022-10-01T05:00:22.352Z,4.47
2022-10-01T05:02:50.021Z,3.85
2022-10-01T05:05:18.450Z,3.80
2022-10-01T05:07:45.529Z,3.88
2022-10-01T05:10:20.911Z,3.95
2022-10-01T05:12:48.429Z,3.60
2022-10-01T05:15:16.099Z,4.38
2022-10-01T05:17:43.228Z,4.00
2022-10-01T05:20:15.609Z,4.97
2022-10-01T05:22:42.691Z,4.25
2022-10-01T05:25:09.715Z,4.28
2022-10-01T05:27:38.003Z,4.38
2022-10-01T05:30:05.870Z,4.40
2022-10-01T05:32:32.989Z,4.18
2022-10-01T05:34:59.991Z,4.00
2022-10-01T05:37:27.009Z,4.20
2022-10-01T05:39:54.021Z,4.00
2022-10-01T05:42:21.067Z,4.57
2022-10-01T05:44:50.116Z,4.30
2022-10-01T05:47:17.428Z,4.03
2022-10-01T05:49:44.631Z,4.28
2022-10-01T05:52:12.174Z,3.80
2022-10-01T05:54:39.290Z,3.88
2022-10-01T05:57:07.931Z,4.20
2022-10-01T05:59:35.536Z,4.60
2022-10-01T06:02:02.912Z,3.75
2022-10-01T06:04:29.988Z,4.25
2022-10-01T06:06:57.028Z,4.53
2022-10-01T06:09:24.071Z,3.72
2022-10-01T06:11:51.077Z,4.50
2022-10-01T06:14:18.181Z,4.22
2022-10-01T06:16:45.192Z,3.97
2022-10-01T06:19:12.367Z,3.90
2022-10-01T06:21:39.325Z,4.15
2022-10-01T06:24:07.043Z,3.65
2022-10-01T06:26:34.126Z,3.95
2022-10-01T06:29:03.551Z,4.35
2022-10-01T06:31:30.726Z,4.03
2022-10-01T06:33:57.883Z,3.92
2022-10-01T06:36:24.889Z,4.35
2022-10-01T06:38:52.060Z,3.58
2022-10-01T06:41:19.631Z,3.90
2022-10-01T06:43:48.800Z,3.90
2022-10-01T06:46:15.834Z,3.50
2022-10-01T06:48:42.922Z,3.58
2022-10-01T06:51:10.141Z,3.30
2022-10-01T06:53:37.171Z,3.78
2022-10-01T06:56:05.919Z,3.55
2022-10-01T06:58:33.046Z,3.35
2022-10-01T07:01:01.676Z,3.55
2022-10-01T07:03:28.938Z,3.50
2022-10-01T07:06:01.276Z,3.47
2022-10-01T07:08:28.448Z,3.75
2022-10-01T07:11:01.306Z,3.78
2022-10-01T07:13:28.357Z,3.50
2022-10-01T07:15:55.397Z,3.65
2022-10-01T07:18:22.421Z,3.42
2022-10-01T07:20:49.457Z,3.15
2022-10-01T07:23:16.714Z,2.85
2022-10-01T07:25:44.111Z,2.67
2022-10-01T07:28:18.014Z,2.92
2022-10-01T07:30:58.387Z,3.00
2022-10-01T07:33:25.423Z,3.35
2022-10-01T07:35:52.509Z,3.13
2022-10-01T07:38:19.693Z,3.25
2022-10-01T07:40:54.398Z,3.10
2022-10-01T07:43:21.918Z,3.35
2022-10-01T07:45:50.197Z,2.90
2022-10-01T07:48:17.593Z,3.28
2022-10-01T07:50:47.917Z,3.00
2022-10-01T07:53:15.021Z,3.03
2022-10-01T07:55:42.305Z,3.30
2022-10-01T07:58:09.807Z,3.17
2022-10-01T08:00:37.033Z,2.55
2022-10-01T08:03:04.260Z,3.10
2022-10-01T08:05:33.584Z,3.08
2022-10-01T08:08:02.123Z,2.90
2022-10-01T08:10:29.702Z,2.35
2022-10-01T08:13:01.485Z,2.40
2022-10-01T08:15:29.276Z,2.80
2022-10-01T08:17:56.659Z,2.90
2022-10-01T08:20:23.783Z,3.03
2022-10-01T08:22:51.459Z,2.90
2022-10-01T08:25:18.731Z,3.08
2022-10-01T08:27:46.970Z,2.70
2022-10-01T08:30:14.152Z,3.10
2022-10-01T08:32:41.315Z,3.13
2022-10-01T08:35:11.319Z,2.75
2022-10-01T08:37:38.301Z,3.10
2022-10-01T08:40:06.097Z,2.63
2022-10-01T08:42:52.458Z,2.88
2022-10-01T08:45:26.055Z,2.28
2022-10-01T08:48:19.785Z,2.85
2022-10-01T08:51:10.521Z,2.90
2022-10-01T08:53:45.670Z,3.03
2022-10-01T08:56:25.486Z,2.72
2022-10-01T08:59:00.927Z,2.47
2022-10-01T09:01:30.128Z,2.92
2022-10-01T09:03:58.322Z,2.78
2022-10-01T09:06:28.472Z,2.60
2022-10-01T09:09:47.866Z,2.83
2022-10-01T09:12:54.025Z,2.85
2022-10-01T09:15:41.406Z,2.70
2022-10-01T09:18:49.598Z,2.20
2022-10-01T09:21:55.692Z,2.45
2022-10-01T09:24:43.831Z,2.65
2022-10-01T09:27:17.737Z,2.78
2022-10-01T09:29:54.657Z,2.40
2022-10-01T09:32:23.982Z,2.45
2022-10-01T09:34:51.035Z,2.40
2022-10-01T09:37:32.624Z,2.95
2022-10-01T09:40:12.913Z,2.45
2022-10-01T09:42:39.928Z,2.28
2022-10-01T09:45:07.476Z,2.60
2022-10-01T09:47:34.782Z,2.38
2022-10-01T09:50:04.711Z,2.45
2022-10-01T09:52:36.859Z,2.28
2022-10-01T09:55:23.663Z,2.30
2022-10-01T09:58:08.927Z,2.47
2022-10-01T10:00:36.814Z,2.30
2022-10-01T10:03:04.294Z,2.75
2022-10-01T10:05:43.521Z,2.65
2022-10-01T10:08:34.021Z,2.47
2022-10-01T10:11:06.166Z,2.53
2022-10-01T10:13:53.226Z,2.35
2022-10-01T10:16:27.007Z,2.63
2022-10-01T10:19:11.782Z,3.08
2022-10-01T10:21:39.246Z,2.72
2022-10-01T10:24:07.614Z,2.20
2022-10-01T10:26:39.739Z,2.90
2022-10-01T10:29:08.630Z,2.30
2022-10-01T10:31:43.458Z,2.75
2022-10-01T10:34:21.997Z,2.65
2022-10-01T10:36:49.461Z,2.30
2022-10-01T10:39:31.292Z,2.22
2022-10-01T10:44:28.293Z,2.20
2022-10-01T10:47:03.488Z,2.20
2022-10-01T10:49:31.940Z,2.40
2022-10-01T10:52:01.120Z,2.05
2022-10-01T10:54:32.724Z,2.22
2022-10-01T10:59:31.973Z,2.60
2022-10-01T11:02:03.226Z,2.20
2022-10-01T11:04:41.363Z,2.38
2022-10-01T11:07:08.748Z,2.10
2022-10-01T11:09:53.165Z,2.60
2022-10-01T11:12:43.973Z,2.40
2022-10-01T11:15:13.797Z,2.40
2022-10-01T11:17:55.362Z,2.20
2022-10-01T11:20:30.188Z,2.28
2022-10-01T11:23:07.165Z,2.90
2022-10-01T11:25:43.871Z,2.72
2022-10-01T11:28:29.535Z,2.13
2022-10-01T11:31:35.500Z,2.72
2022-10-01T11:34:05.969Z,2.78
2022-10-01T11:36:38.561Z,2.30
2022-10-01T11:39:06.717Z,2.22
2022-10-01T11:41:38.542Z,2.20
2022-10-01T11:44:18.888Z,2.50
2022-10-01T11:47:07.497Z,3.10
2022-10-01T11:49:34.517Z,2.63
2022-10-01T11:52:16.577Z,2.45
2022-10-01T11:55:28.865Z,2.40
2022-10-01T11:58:39.883Z,2.75
2022-10-01T12:01:16.240Z,2.58
2022-10-01T12:03:52.144Z,2.30
2022-10-01T12:06:33.765Z,2.85
2022-10-01T12:09:41.794Z,2.50
2022-10-01T12:12:15.779Z,2.83
2022-10-01T12:15:21.489Z,2.30
2022-10-01T12:18:09.522Z,2.60
2022-10-01T12:20:40.964Z,2.33
2022-10-01T12:23:11.180Z,2.17
2022-10-01T12:26:00.998Z,2.30
2022-10-01T12:28:39.739Z,2.33
2022-10-01T12:31:42.088Z,2.63
2022-10-01T12:34:23.637Z,2.40
2022-10-01T12:37:35.373Z,2.85
2022-10-01T12:40:28.183Z,2.20
2022-10-01T12:43:14.234Z,2.55
2022-10-01T12:45:47.329Z,2.40
2022-10-01T12:48:23.236Z,2.42
2022-10-01T12:50:53.495Z,2.55
2022-10-01T12:53:29.457Z,2.33
2022-10-01T12:56:04.835Z,2.42
2022-10-01T12:58:44.346Z,2.22
2022-10-01T13:01:36.405Z,2.50
2022-10-01T13:04:15.905Z,2.65
2022-10-01T13:07:02.660Z,2.05
2022-10-01T13:09:46.555Z,2.70
2022-10-01T13:12:30.690Z,2.03
2022-10-01T13:14:57.742Z,2.05
2022-10-01T13:17:46.942Z,2.30
2022-10-01T13:20:32.992Z,2.45
2022-10-01T13:23:14.808Z,2.55
2022-10-01T13:26:20.452Z,2.30
2022-10-01T13:28:53.677Z,2.17
2022-10-01T13:31:31.506Z,2.22
2022-10-01T13:33:58.835Z,2.10
2022-10-01T13:36:33.630Z,2.58
2022-10-01T13:39:00.910Z,2.58
2022-10-01T13:41:32.928Z,2.80
2022-10-01T13:44:09.300Z,2.67
2022-10-01T13:46:47.746Z,2.45
2022-10-01T13:49:25.436Z,2.40
2022-10-01T13:51:52.779Z,2.35
2022-10-01T13:54:27.816Z,2.47
2022-10-01T13:56:54.845Z,2.50
2022-10-01T13:59:32.562Z,2.72
2022-10-01T14:01:59.845Z,2.58
2022-10-01T14:04:38.136Z,2.53
2022-10-01T14:07:16.134Z,2.33
2022-10-01T14:09:48.736Z,2.70
2022-10-01T14:12:47.874Z,2.28
2022-10-01T14:15:34.883Z,1.98
2022-10-01T14:18:05.767Z,2.10
2022-10-01T14:20:54.697Z,2.50
2022-10-01T14:23:30.247Z,2.17
2022-10-01T14:26:05.563Z,2.30
2022-10-01T14:28:35.688Z,2.30
2022-10-01T14:31:28.610Z,2.53
2022-10-01T14:33:55.748Z,2.30
2022-10-01T14:36:37.531Z,2.60
2022-10-01T14:39:15.539Z,2.38
2022-10-01T14:41:42.907Z,2.20
2022-10-01T14:44:29.851Z,1.98
2022-10-01T14:46:58.506Z,1.88
2022-10-01T14:49:26.526Z,1.98
2022-10-01T14:52:03.019Z,2.20
2022-10-01T14:54:30.955Z,2.00
2022-10-01T14:56:57.982Z,2.13
2022-10-01T14:59:36.159Z,2.30
2022-10-01T15:02:11.019Z,2.67
2022-10-01T15:04:38.063Z,2.25
2022-10-01T15:07:09.557Z,1.73
2022-10-01T15:09:36.752Z,1.63
2022-10-01T15:12:04.079Z,1.60
2022-10-01T15:14:32.210Z,2.22
2022-10-01T15:17:06.345Z,1.85
2022-10-01T15:19:36.629Z,2.20
2022-10-01T15:22:03.732Z,1.70
2022-10-01T15:24:46.495Z,2.00
2022-10-01T15:27:14.367Z,1.65
2022-10-01T15:29:42.761Z,1.80
2022-10-01T15:32:12.111Z,1.92
2022-10-01T15:34:39.422Z,1.90
2022-10-01T15:37:06.554Z,2.30
2022-10-01T15:39:37.803Z,1.83
2022-10-01T15:42:09.376Z,2.25
2022-10-01T15:44:46.620Z,2.63
2022-10-01T15:47:29.350Z,1.85
2022-10-01T15:50:02.594Z,2.42
2022-10-01T15:52:49.749Z,2.40
2022-10-01T15:55:25.935Z,2.00
2022-10-01T15:58:18.484Z,2.10
2022-10-01T16:00:51.239Z,2.00
2022-10-01T16:03:31.339Z,2.13
2022-10-01T16:06:00.148Z,2.03
2022-10-01T16:08:34.563Z,2.75
2022-10-01T16:11:24.115Z,1.73
2022-10-01T16:13:52.729Z,1.80
2022-10-01T16:16:27.970Z,2.55
2022-10-01T16:18:58.577Z,2.55
2022-10-01T16:21:25.795Z,2.00
2022-10-01T16:23:54.071Z,1.92
2022-10-01T16:26:39.653Z,2.17
2022-10-01T16:29:13.358Z,1.77
2022-10-01T16:31:41.916Z,2.30
2022-10-01T16:34:17.005Z,2.30
2022-10-01T16:36:44.636Z,2.25
2022-10-01T16:39:15.685Z,2.42
2022-10-01T16:41:44.116Z,1.90
2022-10-01T16:44:13.098Z,1.73
2022-10-01T16:46:40.707Z,1.70
2022-10-01T16:49:14.951Z,2.22
2022-10-01T16:51:42.418Z,2.20
2022-10-01T16:54:27.061Z,2.50
2022-10-01T16:56:55.281Z,1.65
2022-10-01T16:59:22.995Z,1.85
2022-10-01T17:01:51.568Z,1.90
2022-10-01T17:04:18.772Z,1.80
2022-10-01T17:06:45.976Z,2.20
2022-10-01T17:09:12.876Z,1.77
2022-10-01T17:11:39.912Z,2.42
2022-10-01T17:14:08.845Z,2.00
2022-10-01T17:16:36.201Z,2.22
2022-10-01T17:19:03.464Z,2.13
2022-10-01T17:21:30.624Z,2.03
2022-10-01T17:23:57.579Z,2.00
2022-10-01T17:26:24.587Z,1.85
2022-10-01T17:28:51.503Z,1.95
2022-10-01T17:31:18.613Z,2.17
2022-10-01T17:33:45.685Z,2.17
2022-10-01T17:36:12.751Z,1.88
2022-10-01T17:38:40.604Z,2.20
2022-10-01T17:41:07.967Z,1.67
2022-10-01T17:43:36.878Z,1.98
2022-10-01T17:46:03.949Z,2.10
2022-10-01T17:48:30.987Z,2.00
2022-10-01T17:51:05.769Z,2.25
2022-10-01T17:53:39.710Z,2.33
2022-10-01T17:56:10.707Z,2.20
2022-10-01T17:58:41.662Z,2.47
2022-10-01T18:01:13.522Z,2.60
2022-10-01T18:03:40.945Z,2.42
2022-10-01T18:06:09.869Z,2.40
2022-10-01T18:08:54.090Z,2.22
2022-10-01T18:11:22.097Z,2.97
2022-10-01T18:13:50.193Z,2.40
2022-10-01T18:16:19.227Z,2.58
2022-10-01T18:21:44.373Z,2.67
2022-10-01T18:24:11.267Z,2.30
2022-10-01T18:26:38.793Z,2.35
2022-10-01T18:29:05.874Z,2.83
2022-10-01T18:31:38.292Z,2.03
2022-10-01T18:34:11.839Z,2.08
2022-10-01T18:36:47.670Z,2.42
2022-10-01T18:39:34.177Z,2.63
2022-10-01T18:42:03.795Z,2.20
2022-10-01T18:44:30.731Z,2.65
2022-10-01T18:47:09.815Z,2.63
2022-10-01T18:49:57.427Z,2.70
2022-10-01T18:52:36.430Z,2.70
2022-10-01T18:55:21.959Z,2.78
2022-10-01T18:58:04.923Z,2.40
2022-10-01T19:01:03.554Z,2.67
2022-10-01T19:03:33.341Z,2.78
2022-10-01T19:06:29.006Z,2.75
2022-10-01T19:09:02.231Z,3.10
2022-10-01T19:11:32.076Z,2.47
2022-10-01T19:14:05.096Z,2.78
2022-10-01T19:17:04.239Z,2.80
2022-10-01T19:19:44.973Z,2.63
2022-10-01T19:22:24.106Z,2.47
2022-10-01T19:24:57.983Z,2.85
2022-10-01T19:27:29.993Z,2.50
2022-10-01T19:30:06.934Z,2.60
2022-10-01T19:32:54.735Z,2.45
2022-10-01T19:35:23.488Z,3.03
2022-10-01T19:38:21.415Z,2.40
2022-10-01T19:40:52.693Z,2.60
2022-10-01T19:43:42.982Z,2.88
2022-10-01T19:46:16.396Z,2.55
2022-10-01T19:48:57.433Z,2.97
2022-10-01T19:51:30.412Z,3.00
2022-10-01T19:54:01.157Z,2.83
2022-10-01T19:56:33.155Z,2.80
2022-10-01T19:59:15.670Z,3.00
2022-10-01T20:01:54.276Z,2.85
2022-10-01T20:04:41.065Z,3.05
2022-10-01T20:07:12.500Z,2.75
2022-10-01T20:09:47.366Z,2.92
2022-10-01T20:12:29.463Z,2.50
2022-10-01T20:15:20.085Z,2.78
2022-10-01T20:17:54.133Z,2.50
2022-10-01T20:20:32.793Z,2.80
2022-10-01T20:22:59.887Z,2.45
2022-10-01T20:25:57.881Z,2.60
2022-10-01T20:28:35.279Z,3.33
2022-10-01T20:31:17.589Z,3.40
2022-10-01T20:33:53.819Z,3.20
2022-10-01T20:36:40.371Z,3.13
2022-10-01T20:39:17.875Z,2.75
2022-10-01T20:41:49.753Z,2.20
2022-10-01T20:44:22.917Z,2.20
2022-10-01T20:46:58.454Z,2.10
2022-10-01T20:49:32.906Z,2.40
2022-10-01T20:52:38.183Z,2.60
2022-10-01T20:55:18.271Z,2.40
2022-10-01T20:57:48.568Z,2.70
2022-10-01T21:00:23.251Z,2.20
2022-10-01T21:02:54.921Z,2.45
2022-10-01T21:05:28.028Z,2.28
2022-10-01T21:08:01.503Z,2.10
2022-10-01T21:10:53.203Z,2.17
2022-10-01T21:13:23.328Z,2.13
2022-10-01T21:16:05.573Z,2.58
2022-10-01T21:18:39.452Z,2.17
2022-10-01T21:21:35.454Z,2.30
2022-10-01T21:24:32.649Z,2.67
2022-10-01T21:27:08.694Z,2.45
2022-10-01T21:29:44.918Z,2.40
2022-10-01T21:32:14.688Z,2.50
2022-10-01T21:35:09.790Z,2.22
2022-10-01T21:37:48.625Z,2.28
2022-10-01T21:40:23.809Z,2.60
2022-10-01T21:43:03.247Z,2.28
2022-10-01T21:45:44.878Z,2.25
2022-10-01T21:48:17.971Z,2.38
2022-10-01T21:50:50.662Z,2.38
2022-10-01T21:53:32.541Z,2.17
2022-10-01T21:58:49.516Z,2.22
2022-10-01T22:01:16.733Z,2.60
2022-10-01T22:03:48.317Z,2.60
2022-10-01T22:06:20.882Z,2.67
2022-10-01T22:09:03.640Z,2.30
2022-10-01T22:11:35.029Z,2.22
2022-10-01T22:14:04.526Z,2.50
2022-10-01T22:16:54.565Z,2.45
2022-10-01T22:19:38.134Z,2.08
2022-10-01T22:22:11.075Z,2.33
2022-10-01T22:24:47.669Z,2.55
2022-10-01T22:27:21.270Z,2.60
2022-10-01T22:29:52.304Z,2.58
2022-10-01T22:32:21.242Z,2.90
2022-10-01T22:35:00.873Z,2.67
2022-10-01T22:37:56.653Z,2.42
2022-10-01T22:40:32.949Z,2.50
2022-10-01T22:43:11.197Z,3.05
2022-10-01T22:46:23.788Z,2.75
2022-10-01T22:49:12.253Z,2.80
2022-10-01T22:51:50.143Z,2.55
2022-10-01T22:54:38.157Z,2.75
2022-10-01T22:57:17.143Z,2.95
2022-10-01T22:59:49.967Z,2.85
2022-10-01T23:02:25.928Z,3.25
2022-10-01T23:05:09.431Z,2.83
2022-10-01T23:07:54.301Z,2.72
2022-10-01T23:10:30.193Z,3.00
2022-10-01T23:13:19.837Z,2.72
2022-10-01T23:15:49.839Z,2.67
2022-10-01T23:18:41.878Z,3.40
2022-10-01T23:24:06.837Z,3.03
2022-10-01T23:27:07.804Z,2.92
2022-10-01T23:29:43.524Z,3.38
2022-10-01T23:32:20.727Z,3.05
2022-10-01T23:35:09.377Z,3.13
2022-10-01T23:38:01.659Z,3.20
2022-10-01T23:40:42.164Z,2.90
2022-10-01T23:43:21.422Z,3.92
2022-10-01T23:46:00.483Z,2.78
2022-10-01T23:48:51.249Z,3.00
2022-10-01T23:51:30.903Z,3.10
2022-10-01T23:54:17.335Z,3.15
2022-10-01T23:57:00.031Z,3.17
2022-10-01T23:59:53.438Z,3.03
